KBED/BED METAR and TAF weather

Enter ICAO airport designator
Station Type Date Time Source
KBED METAR 2021/04/14 20:51 UTC NOAA

KBED 142051Z 11012KT 10SM CLR 13/04 A2995 RMK AO2 SLP154 T01330039 56020


Station Type Date Time Source
KBED Decoded METAR 2021/04/14 20:51 UTC NOAA

BEDFORD HANSCOM FIELD, MA, United States (KBED) 42-28N 071-18W 50M
Apr 14, 2021 - 04:51 PM EDT / 2021.04.14 2051 UTC
Wind: from the ESE (110 degrees) at 14 MPH (12 KT):0
Visibility: 10 mile(s):0
Sky conditions: clear
Temperature: 55.9 F (13.3 C)
Dew Point: 39.0 F (3.9 C)
Relative Humidity: 52%
Pressure (altimeter): 29.95 in. Hg (1014 hPa)
Pressure tendency: 0.06 inches (2.0 hPa) lower than three hours ago
ob: KBED 142051Z 11012KT 10SM CLR 13/04 A2995 RMK AO2 SLP154 T01330039 56020
cycle: 21

Station Type Date Time Source
KBED TAF 2021/04/14 18:22 UTC NOAA

TAF KBED 141720Z 1418/1518 12007KT P6SM SCT100
FM150600 12003KT P6SM BKN060
FM151200 10007KT P6SM BKN060
FM151600 11010KT P6SM OVC060

Example: see airport list